createdAt,value
2023-01-03T00:00:31.742Z,96.73
2023-01-03T00:02:34.489Z,95.82
2023-01-03T00:04:37.205Z,96.26
2023-01-03T00:06:47.209Z,96.19
2023-01-03T00:08:50.669Z,96.27
2023-01-03T00:10:53.270Z,96.55
2023-01-03T00:12:57.725Z,95.56
2023-01-03T00:15:00.463Z,95.48
2023-01-03T00:17:05.295Z,95.59
2023-01-03T00:19:13.202Z,95.61
2023-01-03T00:21:15.944Z,95.62
2023-01-03T00:23:18.536Z,94.97
2023-01-03T00:25:21.234Z,95.33
2023-01-03T00:27:23.957Z,95.16
2023-01-03T00:29:26.749Z,95.79
2023-01-03T00:31:29.503Z,96.13
2023-01-03T00:33:32.709Z,95.66
2023-01-03T00:35:35.304Z,96.44
2023-01-03T00:37:38.011Z,95.60
2023-01-03T00:39:41.303Z,96.48
2023-01-03T00:41:44.022Z,95.35
2023-01-03T00:43:48.102Z,96.02
2023-01-03T00:45:50.735Z,96.27
2023-01-03T00:47:53.371Z,95.56
2023-01-03T00:49:55.978Z,96.44
2023-01-03T00:51:58.772Z,96.39
2023-01-03T00:54:03.542Z,96.43
2023-01-03T00:56:09.588Z,95.72
2023-01-03T00:58:12.356Z,96.43
2023-01-03T01:00:15.333Z,96.59
2023-01-03T01:02:20.685Z,96.47
2023-01-03T01:04:26.515Z,96.38
2023-01-03T01:06:31.574Z,97.63
2023-01-03T01:08:34.227Z,97.33
2023-01-03T01:10:36.907Z,96.50
2023-01-03T01:12:39.534Z,96.92
2023-01-03T01:14:42.206Z,96.91
2023-01-03T01:16:44.874Z,97.22
2023-01-03T01:18:49.332Z,96.57
2023-01-03T01:20:53.065Z,97.32
2023-01-03T01:22:55.696Z,97.07
2023-01-03T01:24:58.294Z,97.32
2023-01-03T01:27:01.039Z,97.00
2023-01-03T01:29:04.136Z,97.35
2023-01-03T01:31:07.795Z,96.60
2023-01-03T01:33:10.466Z,96.82
2023-01-03T01:35:13.118Z,96.73
2023-01-03T01:37:15.780Z,96.67
2023-01-03T01:39:26.562Z,96.76
2023-01-03T01:41:50.427Z,95.92
2023-01-03T01:44:16.601Z,96.20
2023-01-03T01:46:24.962Z,95.74
2023-01-03T01:48:27.880Z,96.09
2023-01-03T01:50:45.874Z,96.53
2023-01-03T01:53:12.472Z,95.84
2023-01-03T01:55:20.693Z,96.07
2023-01-03T01:57:25.960Z,96.09
2023-01-03T01:59:28.733Z,96.79
2023-01-03T02:01:31.780Z,96.39
2023-01-03T02:03:34.883Z,96.99
2023-01-03T02:05:48.768Z,96.08
2023-01-03T02:07:53.027Z,96.57
2023-01-03T02:09:57.793Z,96.49
2023-01-03T02:12:57.856Z,96.58
2023-01-03T02:15:28.026Z,97.09
2023-01-03T02:17:52.674Z,97.27
2023-01-03T02:20:10.173Z,97.60
2023-01-03T02:22:18.817Z,97.45
2023-01-03T02:24:43.332Z,97.32
2023-01-03T02:27:04.281Z,97.62
2023-01-03T02:29:29.204Z,97.61
2023-01-03T02:32:01.387Z,97.21
2023-01-03T02:34:12.656Z,97.61
2023-01-03T02:36:24.999Z,97.76
2023-01-03T02:38:36.298Z,96.91
2023-01-03T02:40:49.894Z,96.92
2023-01-03T02:43:02.247Z,96.50
2023-01-03T02:45:11.913Z,96.65
2023-01-03T02:47:16.164Z,96.25
2023-01-03T02:49:24.904Z,96.25
2023-01-03T02:51:55.882Z,95.10
2023-01-03T02:54:00.293Z,95.52
2023-01-03T02:56:09.776Z,95.71
2023-01-03T02:58:23.622Z,94.41
2023-01-03T03:00:29.860Z,94.05
2023-01-03T03:02:36.359Z,94.03
2023-01-03T03:04:40.828Z,94.11
2023-01-03T03:07:11.585Z,93.98
2023-01-03T03:09:14.261Z,93.97
2023-01-03T03:11:35.785Z,94.02
2023-01-03T03:13:47.060Z,93.49
2023-01-03T03:16:00.751Z,93.52
2023-01-03T03:18:13.511Z,93.43
2023-01-03T03:20:36.221Z,93.16
2023-01-03T03:23:00.327Z,92.81
2023-01-03T03:25:08.165Z,93.07
2023-01-03T03:27:47.773Z,92.98
2023-01-03T03:29:53.537Z,92.55
2023-01-03T03:31:57.198Z,93.13
2023-01-03T03:33:59.728Z,92.64
2023-01-03T03:36:08.780Z,93.15
2023-01-03T03:38:16.435Z,93.49
2023-01-03T03:40:38.111Z,93.09
2023-01-03T03:43:14.974Z,93.57
2023-01-03T03:45:37.505Z,92.72
2023-01-03T03:48:01.274Z,92.61
2023-01-03T03:50:14.201Z,93.56
2023-01-03T03:52:21.357Z,93.28
2023-01-03T03:54:26.495Z,93.36
2023-01-03T03:56:32.888Z,92.91
2023-01-03T03:59:05.561Z,93.30
2023-01-03T04:01:11.760Z,93.39
2023-01-03T04:03:16.199Z,92.80
2023-01-03T04:05:23.433Z,92.78
2023-01-03T04:07:26.357Z,91.83
2023-01-03T04:09:29.070Z,92.29
2023-01-03T04:11:31.792Z,92.69
2023-01-03T04:13:36.729Z,91.99
2023-01-03T04:15:39.411Z,92.07
2023-01-03T04:17:42.463Z,92.33
2023-01-03T04:19:45.127Z,91.98
2023-01-03T04:21:47.764Z,91.82
2023-01-03T04:23:50.529Z,91.45
2023-01-03T04:25:53.234Z,91.61
2023-01-03T04:27:55.909Z,91.77
2023-01-03T04:29:58.565Z,91.58
2023-01-03T04:32:01.304Z,91.80
2023-01-03T04:34:04.014Z,91.14
2023-01-03T04:36:06.944Z,91.20
2023-01-03T04:38:09.603Z,90.67
2023-01-03T04:40:12.391Z,90.88
2023-01-03T04:42:33.794Z,91.69
2023-01-03T04:44:36.377Z,91.31
2023-01-03T04:46:44.075Z,91.11
2023-01-03T04:48:49.071Z,91.00
2023-01-03T04:50:57.227Z,90.69
2023-01-03T04:53:00.169Z,90.71
2023-01-03T04:55:02.798Z,91.23
2023-01-03T04:57:06.226Z,91.16
2023-01-03T04:59:08.937Z,90.84
2023-01-03T05:01:11.664Z,90.76
2023-01-03T05:03:14.601Z,90.96
2023-01-03T05:05:17.373Z,90.89
2023-01-03T05:07:19.934Z,90.68
2023-01-03T05:09:23.305Z,90.03
2023-01-03T05:11:26.105Z,90.62
2023-01-03T05:13:28.800Z,90.37
2023-01-03T05:15:35.034Z,90.14
2023-01-03T05:17:37.750Z,89.99
2023-01-03T05:20:00.436Z,90.03
2023-01-03T05:22:21.705Z,90.05
2023-01-03T05:24:42.718Z,90.00
2023-01-03T05:26:46.147Z,89.74
2023-01-03T05:28:53.550Z,90.55
2023-01-03T05:31:01.203Z,90.46
2023-01-03T05:33:03.895Z,91.07
2023-01-03T05:35:06.852Z,90.66
2023-01-03T05:37:09.831Z,90.80
2023-01-03T05:39:12.823Z,90.17
2023-01-03T05:41:35.943Z,90.05
2023-01-03T05:43:38.700Z,90.03
2023-01-03T05:45:41.490Z,90.77
2023-01-03T05:47:44.171Z,90.48
2023-01-03T05:49:46.832Z,90.05
2023-01-03T05:51:49.862Z,90.13
2023-01-03T05:53:52.849Z,89.81
2023-01-03T05:55:55.584Z,89.21
2023-01-03T05:57:58.202Z,89.08
2023-01-03T06:00:00.896Z,88.89
2023-01-03T06:02:03.773Z,89.26
2023-01-03T06:04:07.291Z,88.72
2023-01-03T06:06:10.081Z,88.30
2023-01-03T06:08:12.721Z,88.79
2023-01-03T06:10:15.484Z,87.95
2023-01-03T06:12:18.092Z,87.21
2023-01-03T06:14:20.940Z,86.63
2023-01-03T06:16:42.330Z,87.10
2023-01-03T06:18:45.064Z,87.12
2023-01-03T06:20:47.681Z,86.66
2023-01-03T06:22:50.277Z,86.07
2023-01-03T06:24:53.223Z,85.50
2023-01-03T06:26:56.026Z,84.41
2023-01-03T06:28:59.460Z,84.00
2023-01-03T06:31:04.109Z,84.93
2023-01-03T06:33:06.877Z,85.26
2023-01-03T06:35:09.840Z,84.76
2023-01-03T06:37:12.475Z,84.68
2023-01-03T06:39:15.098Z,85.10
2023-01-03T06:41:17.905Z,85.47
2023-01-03T06:43:20.592Z,84.40
2023-01-03T06:45:41.857Z,84.79
2023-01-03T06:48:02.916Z,84.40
2023-01-03T06:50:24.386Z,83.85
2023-01-03T06:52:45.445Z,84.28
2023-01-03T06:54:48.371Z,83.82
2023-01-03T06:56:51.980Z,83.56
2023-01-03T06:58:54.876Z,84.18
2023-01-03T07:01:00.325Z,84.39
2023-01-03T07:03:08.866Z,83.39
2023-01-03T07:05:14.152Z,84.03
2023-01-03T07:07:16.769Z,82.99
2023-01-03T07:09:19.442Z,82.92
2023-01-03T07:11:25.198Z,82.61
2023-01-03T07:13:46.519Z,82.33
2023-01-03T07:15:49.116Z,82.49
2023-01-03T07:17:51.850Z,82.14
2023-01-03T07:19:54.526Z,82.69
2023-01-03T07:21:57.169Z,82.45
2023-01-03T07:24:04.402Z,82.37
2023-01-03T07:26:07.303Z,81.83
2023-01-03T07:28:12.233Z,81.56
2023-01-03T07:30:15.051Z,81.45
2023-01-03T07:32:17.643Z,81.49
2023-01-03T07:34:20.239Z,81.02
2023-01-03T07:36:23.028Z,81.48
2023-01-03T07:38:25.660Z,81.51
2023-01-03T07:40:28.704Z,80.91
2023-01-03T07:42:49.704Z,80.52
2023-01-03T07:44:52.273Z,81.20
2023-01-03T07:46:55.039Z,80.53
2023-01-03T07:49:05.055Z,80.62
2023-01-03T07:51:12.538Z,80.68
2023-01-03T07:53:17.183Z,79.29
2023-01-03T07:55:19.902Z,79.47
2023-01-03T07:57:22.497Z,79.32
2023-01-03T07:59:25.117Z,79.85
2023-01-03T08:01:30.259Z,78.95
2023-01-03T08:03:33.545Z,78.50
2023-01-03T08:05:36.580Z,78.43
2023-01-03T08:07:39.222Z,79.40
2023-01-03T08:10:00.509Z,78.89
2023-01-03T08:12:22.014Z,78.54
2023-01-03T08:14:26.510Z,79.13
2023-01-03T08:16:30.012Z,78.46
2023-01-03T08:18:32.672Z,78.53
2023-01-03T08:20:35.337Z,78.49
2023-01-03T08:22:37.915Z,78.18
2023-01-03T08:24:40.576Z,77.78
2023-01-03T08:26:43.253Z,77.79
2023-01-03T08:28:46.415Z,77.24
2023-01-03T08:30:50.143Z,77.28
2023-01-03T08:32:55.381Z,77.36
2023-01-03T08:34:58.516Z,77.95
2023-01-03T08:37:07.373Z,77.39
2023-01-03T08:39:13.710Z,77.14
2023-01-03T08:41:20.959Z,76.41
2023-01-03T08:43:23.997Z,77.60
2023-01-03T08:45:27.629Z,78.05
2023-01-03T08:47:30.964Z,78.15
2023-01-03T08:49:33.661Z,77.88
2023-01-03T08:51:36.345Z,78.02
2023-01-03T08:53:40.264Z,77.44
2023-01-03T08:55:43.056Z,78.18
2023-01-03T08:57:45.914Z,77.88
2023-01-03T08:59:48.996Z,78.50
2023-01-03T09:01:51.875Z,77.07
2023-01-03T09:03:54.898Z,76.88
2023-01-03T09:06:02.036Z,76.93
2023-01-03T09:08:05.342Z,76.27
2023-01-03T09:10:08.782Z,76.10
2023-01-03T09:12:11.479Z,76.95
2023-01-03T09:14:14.751Z,77.35
2023-01-03T09:16:17.731Z,76.77
2023-01-03T09:18:20.438Z,77.42
2023-01-03T09:20:23.501Z,77.73
2023-01-03T09:22:26.588Z,77.24
2023-01-03T09:24:29.412Z,76.88
2023-01-03T09:26:32.201Z,76.35
2023-01-03T09:28:35.347Z,76.20
2023-01-03T09:30:38.155Z,76.27
2023-01-03T09:32:41.183Z,75.37
2023-01-03T09:34:44.319Z,75.52
2023-01-03T09:36:47.267Z,75.88
2023-01-03T09:38:50.370Z,76.85
2023-01-03T09:41:03.220Z,76.80
2023-01-03T09:43:21.502Z,77.17
2023-01-03T09:45:34.582Z,77.31
2023-01-03T09:47:39.429Z,78.16
2023-01-03T09:50:04.614Z,78.19
2023-01-03T09:52:24.695Z,78.63
2023-01-03T09:54:57.777Z,78.53
2023-01-03T09:57:23.152Z,78.35
2023-01-03T09:59:56.181Z,78.87
2023-01-03T10:02:54.470Z,78.84
2023-01-03T10:05:24.831Z,78.11
2023-01-03T10:07:42.241Z,78.92
2023-01-03T10:10:12.312Z,78.09
2023-01-03T10:12:35.430Z,78.08
2023-01-03T10:14:56.175Z,79.37
2023-01-03T10:17:16.691Z,78.53
2023-01-03T10:19:56.248Z,78.18
2023-01-03T10:22:09.226Z,78.69
2023-01-03T10:24:22.482Z,79.51
2023-01-03T10:26:33.315Z,79.49
2023-01-03T10:28:42.336Z,78.79
2023-01-03T10:30:58.342Z,78.82
2023-01-03T10:33:15.651Z,78.73
2023-01-03T10:35:25.293Z,78.97
2023-01-03T10:37:28.361Z,78.49
2023-01-03T10:39:32.317Z,78.21
2023-01-03T10:41:52.892Z,78.30
2023-01-03T10:44:00.899Z,79.53
2023-01-03T10:46:23.015Z,78.54
2023-01-03T10:48:59.928Z,78.51
2023-01-03T10:51:05.448Z,79.10
2023-01-03T10:53:11.520Z,79.49
2023-01-03T10:55:19.146Z,78.88
2023-01-03T10:57:39.452Z,78.85
2023-01-03T10:59:49.497Z,79.71
2023-01-03T11:02:15.426Z,79.66
2023-01-03T11:04:20.050Z,80.31
2023-01-03T11:06:22.697Z,80.00
2023-01-03T11:08:44.498Z,80.28
2023-01-03T11:10:54.549Z,80.17
2023-01-03T11:12:58.711Z,80.51
2023-01-03T11:15:04.967Z,80.60
2023-01-03T11:17:13.088Z,80.86
2023-01-03T11:19:18.898Z,80.96
2023-01-03T11:21:30.489Z,81.01
2023-01-03T11:24:02.741Z,80.64
2023-01-03T11:26:20.776Z,80.98
2023-01-03T11:28:46.183Z,81.36
2023-01-03T11:31:25.126Z,81.86
2023-01-03T11:33:56.643Z,81.80
2023-01-03T11:36:07.396Z,82.82
2023-01-03T11:38:25.226Z,83.58
2023-01-03T11:40:44.927Z,83.42
2023-01-03T11:43:16.104Z,83.91
2023-01-03T11:45:34.782Z,83.38
2023-01-03T11:47:58.989Z,83.35
2023-01-03T11:50:15.603Z,83.62
2023-01-03T11:52:50.136Z,83.71
2023-01-03T11:55:10.802Z,84.41
2023-01-03T11:57:36.232Z,84.06
2023-01-03T11:59:57.164Z,83.90
2023-01-03T12:02:20.007Z,83.60
2023-01-03T12:04:37.850Z,84.16
2023-01-03T12:10:10.511Z,84.00
2023-01-03T12:12:22.105Z,84.59
2023-01-03T12:14:32.600Z,84.62
2023-01-03T12:17:00.873Z,84.37
2023-01-03T12:19:12.496Z,85.43
2023-01-03T12:21:37.656Z,84.81
2023-01-03T12:23:48.904Z,85.26
2023-01-03T12:25:56.310Z,85.06
2023-01-03T12:28:10.806Z,85.11
2023-01-03T12:30:42.982Z,85.40
2023-01-03T12:32:53.447Z,85.63
2023-01-03T12:35:17.469Z,84.81
2023-01-03T12:37:24.544Z,85.55
2023-01-03T12:39:49.383Z,85.29
2023-01-03T12:42:12.137Z,85.82
2023-01-03T12:44:34.866Z,86.11
2023-01-03T12:46:44.484Z,86.11
2023-01-03T12:49:13.538Z,86.10
2023-01-03T12:51:20.534Z,85.41
2023-01-03T12:53:25.833Z,85.07
2023-01-03T12:55:48.805Z,85.63
2023-01-03T12:58:23.462Z,86.37
2023-01-03T13:00:26.777Z,86.01
2023-01-03T13:03:02.227Z,86.17
2023-01-03T13:05:23.785Z,86.21
2023-01-03T13:07:30.267Z,86.40
2023-01-03T13:09:38.600Z,87.42
2023-01-03T13:11:55.077Z,87.00
2023-01-03T13:14:21.720Z,87.26
2023-01-03T13:16:36.647Z,87.08
2023-01-03T13:18:39.405Z,87.00
2023-01-03T13:20:46.355Z,87.41
2023-01-03T13:23:18.428Z,86.85
2023-01-03T13:25:27.010Z,86.56
2023-01-03T13:27:38.737Z,86.73
2023-01-03T13:29:54.483Z,86.55
2023-01-03T13:32:25.473Z,86.17
2023-01-03T13:34:33.384Z,86.49
2023-01-03T13:37:08.017Z,86.40
2023-01-03T13:39:40.263Z,85.99
2023-01-03T13:41:53.595Z,86.98
2023-01-03T13:44:06.623Z,87.71
2023-01-03T13:46:25.030Z,87.48
2023-01-03T13:48:37.592Z,87.49
2023-01-03T13:50:40.188Z,87.60
2023-01-03T13:53:05.069Z,87.40
2023-01-03T13:55:36.597Z,87.55
2023-01-03T13:57:53.580Z,87.61
2023-01-03T13:59:59.414Z,87.53
2023-01-03T14:02:10.622Z,87.37
2023-01-03T14:04:41.442Z,87.80
2023-01-03T14:07:05.302Z,87.18
2023-01-03T14:09:45.041Z,87.78
2023-01-03T14:12:12.060Z,87.28
2023-01-03T14:14:22.545Z,87.79
2023-01-03T14:16:29.178Z,87.61
2023-01-03T14:18:33.788Z,87.96
2023-01-03T14:20:37.326Z,88.14
2023-01-03T14:22:48.451Z,88.12
2023-01-03T14:24:57.688Z,87.68
2023-01-03T14:27:16.993Z,87.89
2023-01-03T14:29:23.420Z,87.94
2023-01-03T14:31:28.462Z,88.05
2023-01-03T14:33:42.776Z,87.87
2023-01-03T14:35:46.003Z,87.83
2023-01-03T14:37:48.700Z,87.21
2023-01-03T14:40:03.749Z,87.67
2023-01-03T14:42:15.139Z,87.39
2023-01-03T14:44:17.888Z,88.03
2023-01-03T14:46:20.562Z,88.59
2023-01-03T14:48:25.096Z,87.64
2023-01-03T14:50:30.360Z,88.25
2023-01-03T14:52:42.361Z,88.47
2023-01-03T14:54:46.701Z,87.24
2023-01-03T14:56:49.258Z,87.94
2023-01-03T14:58:52.034Z,88.08
2023-01-03T15:00:55.255Z,87.42
2023-01-03T15:02:58.190Z,88.09
2023-01-03T15:05:02.896Z,88.61
2023-01-03T15:07:13.014Z,88.27
2023-01-03T15:09:22.651Z,87.94
2023-01-03T15:11:55.852Z,88.34
2023-01-03T15:14:07.015Z,88.66
2023-01-03T15:16:38.696Z,88.35
2023-01-03T15:18:44.163Z,88.63
2023-01-03T15:20:46.834Z,88.85
2023-01-03T15:22:49.629Z,88.12
2023-01-03T15:25:05.285Z,88.52
2023-01-03T15:27:33.167Z,88.48
2023-01-03T15:29:45.197Z,88.51
2023-01-03T15:31:49.302Z,87.62
2023-01-03T15:34:14.182Z,88.61
2023-01-03T15:36:19.368Z,88.56
2023-01-03T15:38:35.785Z,88.90
2023-01-03T15:40:40.423Z,89.53
2023-01-03T15:43:03.120Z,89.07
2023-01-03T15:45:12.368Z,88.98
2023-01-03T15:47:21.326Z,88.87
2023-01-03T15:49:27.203Z,89.29
2023-01-03T15:51:29.949Z,89.22
2023-01-03T15:53:44.217Z,89.45
2023-01-03T15:55:49.758Z,89.23
2023-01-03T15:57:54.216Z,88.67
2023-01-03T16:00:00.237Z,88.90
2023-01-03T16:02:04.279Z,89.26
2023-01-03T16:04:07.002Z,88.63
2023-01-03T16:06:09.670Z,89.08
2023-01-03T16:08:35.172Z,89.04
2023-01-03T16:10:38.060Z,89.78
2023-01-03T16:12:42.802Z,89.05
2023-01-03T16:14:50.512Z,89.74
2023-01-03T16:16:57.171Z,89.97
2023-01-03T16:19:00.594Z,89.95
2023-01-03T16:21:04.892Z,89.92
2023-01-03T16:23:26.259Z,89.62
2023-01-03T16:25:29.596Z,89.93
2023-01-03T16:27:32.140Z,89.80
2023-01-03T16:29:34.935Z,90.11
2023-01-03T16:31:38.561Z,90.40
2023-01-03T16:33:42.966Z,89.77
2023-01-03T16:35:45.913Z,89.90
2023-01-03T16:37:54.443Z,89.51
2023-01-03T16:39:58.445Z,89.64
2023-01-03T16:42:13.304Z,90.17
2023-01-03T16:44:16.053Z,89.88
2023-01-03T16:46:21.846Z,90.13
2023-01-03T16:48:26.404Z,90.12
2023-01-03T16:50:29.088Z,90.24
2023-01-03T16:52:37.795Z,89.82
2023-01-03T16:54:42.744Z,89.72
2023-01-03T16:56:45.941Z,90.10
2023-01-03T16:58:48.922Z,90.22
2023-01-03T17:00:52.421Z,89.87
2023-01-03T17:03:01.374Z,89.88
2023-01-03T17:05:04.508Z,89.80
2023-01-03T17:07:15.403Z,90.42
2023-01-03T17:09:22.831Z,89.86
2023-01-03T17:11:26.664Z,90.04
2023-01-03T17:13:33.063Z,89.66
2023-01-03T17:15:35.632Z,90.62
2023-01-03T17:17:38.216Z,90.31
2023-01-03T17:20:03.375Z,90.13
2023-01-03T17:22:03.518Z,90.35
2023-01-03T17:24:16.874Z,90.91
2023-01-03T17:26:22.917Z,90.86
2023-01-03T17:28:25.601Z,91.27
2023-01-03T17:30:29.157Z,90.93
2023-01-03T17:32:32.376Z,90.80
2023-01-03T17:34:34.966Z,90.51
2023-01-03T17:36:37.704Z,90.54
2023-01-03T17:38:44.324Z,90.60
2023-01-03T17:40:49.947Z,91.11
2023-01-03T17:42:55.584Z,91.22
2023-01-03T17:45:35.663Z,90.65
2023-01-03T17:48:02.857Z,90.57
2023-01-03T17:50:05.823Z,90.95
2023-01-03T17:52:20.672Z,90.75
2023-01-03T17:54:43.525Z,91.19
2023-01-03T17:56:47.006Z,90.96
2023-01-03T17:58:56.006Z,90.70
2023-01-03T18:00:59.718Z,90.87
2023-01-03T18:03:02.661Z,91.17
2023-01-03T18:05:16.371Z,90.77
2023-01-03T18:07:25.519Z,90.80
2023-01-03T18:09:31.634Z,90.62
2023-01-03T18:11:34.397Z,90.91
2023-01-03T18:13:38.635Z,90.81
2023-01-03T18:15:41.266Z,90.28
2023-01-03T18:17:46.235Z,90.30
2023-01-03T18:19:49.256Z,90.28
2023-01-03T18:21:52.108Z,90.46
2023-01-03T18:24:08.028Z,90.27
2023-01-03T18:26:14.018Z,90.31
2023-01-03T18:28:21.690Z,90.53
2023-01-03T18:30:24.537Z,90.34
2023-01-03T18:32:29.789Z,90.61
2023-01-03T18:34:32.456Z,90.88
2023-01-03T18:36:42.182Z,90.51
2023-01-03T18:38:44.753Z,90.79
2023-01-03T18:40:47.463Z,90.61
2023-01-03T18:43:08.330Z,90.72
2023-01-03T18:45:15.291Z,90.88
2023-01-03T18:47:18.994Z,90.40
2023-01-03T18:49:21.592Z,91.22
2023-01-03T18:51:28.110Z,90.99
2023-01-03T18:53:33.414Z,90.56
2023-01-03T18:55:37.933Z,90.67
2023-01-03T18:57:40.930Z,90.59
2023-01-03T18:59:43.601Z,90.61
2023-01-03T19:01:46.667Z,91.06
2023-01-03T19:03:51.122Z,91.23
2023-01-03T19:05:55.534Z,91.12
2023-01-03T19:07:58.658Z,91.14
2023-01-03T19:10:05.974Z,90.99
2023-01-03T19:12:16.630Z,90.97
2023-01-03T19:14:19.273Z,90.60
2023-01-03T19:16:32.321Z,90.86
2023-01-03T19:18:34.916Z,90.96
2023-01-03T19:20:37.548Z,91.25
2023-01-03T19:22:43.495Z,91.42
2023-01-03T19:24:46.437Z,91.33
2023-01-03T19:26:55.030Z,91.26
2023-01-03T19:29:01.367Z,91.95
2023-01-03T19:31:05.264Z,92.34
2023-01-03T19:33:13.839Z,92.15
2023-01-03T19:35:16.998Z,92.32
2023-01-03T19:37:19.848Z,92.12
2023-01-03T19:39:26.645Z,92.64
2023-01-03T19:41:31.670Z,92.15
2023-01-03T19:43:35.557Z,92.18
2023-01-03T19:45:41.195Z,92.27
2023-01-03T19:47:44.855Z,92.66
2023-01-03T19:49:48.777Z,92.77
2023-01-03T19:51:54.179Z,92.77
2023-01-03T19:53:56.930Z,92.70
2023-01-03T19:55:59.777Z,92.81
2023-01-03T19:58:12.544Z,92.75
2023-01-03T20:00:24.827Z,92.35
2023-01-03T20:02:33.587Z,92.92
2023-01-03T20:04:36.578Z,92.85
2023-01-03T20:06:39.399Z,93.44
2023-01-03T20:08:42.030Z,93.08
2023-01-03T20:10:45.247Z,93.49
2023-01-03T20:12:50.984Z,93.87
2023-01-03T20:15:00.004Z,93.73
2023-01-03T20:17:20.867Z,94.54
2023-01-03T20:19:23.477Z,94.46
2023-01-03T20:21:30.454Z,94.15
2023-01-03T20:23:37.349Z,94.84
2023-01-03T20:25:40.202Z,94.72
2023-01-03T20:27:45.964Z,95.16
2023-01-03T20:29:50.469Z,95.54
2023-01-03T20:31:53.488Z,95.46
2023-01-03T20:33:57.413Z,95.54
2023-01-03T20:36:12.619Z,95.62
2023-01-03T20:38:25.237Z,96.01
2023-01-03T20:40:29.096Z,96.08
2023-01-03T20:42:31.852Z,96.29
2023-01-03T20:44:34.757Z,96.88
2023-01-03T20:46:39.252Z,96.63
2023-01-03T20:48:42.394Z,96.45
2023-01-03T20:50:45.355Z,96.92
2023-01-03T20:52:48.440Z,97.15
2023-01-03T20:54:52.866Z,97.83
2023-01-03T20:56:55.688Z,97.32
2023-01-03T20:59:00.430Z,97.61
2023-01-03T21:01:05.186Z,97.65
2023-01-03T21:03:09.137Z,97.72
2023-01-03T21:05:15.143Z,97.91
2023-01-03T21:07:27.288Z,97.98
2023-01-03T21:09:29.921Z,98.07
2023-01-03T21:11:42.262Z,98.25
2023-01-03T21:13:48.808Z,98.53
2023-01-03T21:15:52.459Z,98.64
2023-01-03T21:17:56.192Z,98.34
2023-01-03T21:20:01.336Z,99.09
2023-01-03T21:22:17.875Z,99.44
2023-01-03T21:24:23.802Z,98.95
2023-01-03T21:26:26.827Z,98.86
2023-01-03T21:28:29.608Z,98.32
2023-01-03T21:30:32.830Z,98.72
2023-01-03T21:32:35.553Z,98.35
2023-01-03T21:34:38.477Z,98.60
2023-01-03T21:36:41.023Z,98.52
2023-01-03T21:38:43.685Z,98.57
2023-01-03T21:40:49.137Z,98.86
2023-01-03T21:43:03.748Z,98.97
2023-01-03T21:45:12.823Z,98.96
2023-01-03T21:47:15.448Z,98.91
2023-01-03T21:49:18.140Z,99.06
2023-01-03T21:51:33.470Z,99.38
2023-01-03T21:53:40.987Z,99.05
2023-01-03T21:55:43.826Z,99.80
2023-01-03T21:57:46.831Z,99.61
2023-01-03T21:59:50.473Z,99.81
2023-01-03T22:02:12.024Z,99.62
2023-01-03T22:04:17.777Z,99.14
2023-01-03T22:06:20.382Z,99.42
2023-01-03T22:08:23.073Z,99.74
2023-01-03T22:10:25.745Z,99.21
2023-01-03T22:12:28.407Z,99.84
2023-01-03T22:14:31.209Z,99.79
2023-01-03T22:16:34.081Z,99.88
2023-01-03T22:18:37.163Z,99.75
2023-01-03T22:20:39.783Z,99.74
2023-01-03T22:22:43.584Z,100.00
2023-01-03T22:24:46.346Z,99.96
2023-01-03T22:26:49.726Z,99.92
2023-01-03T22:28:52.327Z,99.57
2023-01-03T22:30:54.982Z,99.57
2023-01-03T22:32:58.328Z,99.73
2023-01-03T22:35:00.926Z,100.00
2023-01-03T22:37:05.140Z,99.60
2023-01-03T22:39:07.847Z,99.25
2023-01-03T22:41:17.245Z,99.45
2023-01-03T22:43:19.905Z,99.21
2023-01-03T22:45:22.547Z,99.43
2023-01-03T22:47:25.490Z,99.10
2023-01-03T22:49:28.330Z,98.78
2023-01-03T22:51:30.927Z,98.79
2023-01-03T22:53:38.596Z,99.04
2023-01-03T22:55:42.604Z,99.20
2023-01-03T22:57:45.193Z,98.80
2023-01-03T22:59:47.841Z,99.24
2023-01-03T23:01:50.634Z,99.05
2023-01-03T23:03:55.010Z,99.03
2023-01-03T23:05:58.371Z,98.96
2023-01-03T23:08:00.980Z,98.74
2023-01-03T23:10:04.252Z,99.01
2023-01-03T23:12:26.091Z,98.73
2023-01-03T23:14:28.775Z,98.71
2023-01-03T23:16:32.536Z,98.89
2023-01-03T23:18:35.232Z,98.98
2023-01-03T23:20:49.184Z,98.92
2023-01-03T23:22:57.594Z,98.75
2023-01-03T23:25:02.310Z,98.93
2023-01-03T23:27:05.738Z,98.43
2023-01-03T23:29:10.033Z,98.36
2023-01-03T23:31:12.888Z,98.17
2023-01-03T23:33:16.267Z,98.28
2023-01-03T23:35:18.903Z,98.13
2023-01-03T23:37:21.528Z,97.85
2023-01-03T23:39:24.164Z,97.85
2023-01-03T23:41:26.790Z,98.05
2023-01-03T23:43:29.334Z,98.05
2023-01-03T23:45:31.924Z,97.71
2023-01-03T23:47:34.748Z,98.23
2023-01-03T23:49:37.302Z,97.72
2023-01-03T23:51:39.898Z,97.74
2023-01-03T23:53:44.018Z,97.81
2023-01-03T23:55:46.689Z,98.15
2023-01-03T23:57:49.346Z,97.57
2023-01-03T23:59:52.034Z,97.85
